createdAt,value
2022-10-11T00:01:17.295Z,10.43
2022-10-11T00:06:21.598Z,10.51
2022-10-11T00:11:24.554Z,10.75
2022-10-11T00:16:27.478Z,10.63
2022-10-11T00:21:31.840Z,10.62
2022-10-11T00:26:34.915Z,10.65
2022-10-11T00:31:37.814Z,10.80
2022-10-11T00:36:42.160Z,10.74
2022-10-11T00:41:45.100Z,10.73
2022-10-11T00:46:56.000Z,10.86
2022-10-11T00:52:04.668Z,10.89
2022-10-11T00:57:10.779Z,10.88
2022-10-11T01:02:15.494Z,10.94
2022-10-11T01:07:20.968Z,10.86
2022-10-11T01:12:27.403Z,10.94
2022-10-11T01:17:37.997Z,10.79
2022-10-11T01:23:04.437Z,10.74
2022-10-11T01:28:26.876Z,10.72
2022-10-11T01:33:37.871Z,10.78
2022-10-11T01:38:47.910Z,10.80
2022-10-11T01:43:52.976Z,10.72
2022-10-11T01:48:59.444Z,10.82
2022-10-11T01:54:24.211Z,10.87
2022-10-11T01:59:42.540Z,10.85
2022-10-11T02:04:52.124Z,10.82
2022-10-11T02:10:04.845Z,10.82
2022-10-11T02:15:10.272Z,10.92
2022-10-11T02:20:19.831Z,10.72
2022-10-11T02:25:25.506Z,10.71
2022-10-11T02:30:29.904Z,10.58
2022-10-11T02:35:42.593Z,10.64
2022-10-11T02:40:50.040Z,10.67
2022-10-11T02:45:57.291Z,10.71
2022-10-11T02:51:01.539Z,10.47
2022-10-11T02:56:04.872Z,10.54
2022-10-11T03:01:08.060Z,10.46
2022-10-11T03:06:12.349Z,10.47
2022-10-11T03:11:15.392Z,10.37
2022-10-11T03:16:18.627Z,10.18
2022-10-11T03:21:25.098Z,10.09
2022-10-11T03:26:28.668Z,10.00
2022-10-11T03:31:31.617Z,9.99
2022-10-11T03:36:35.946Z,10.01
2022-10-11T03:41:38.894Z,9.93
2022-10-11T03:46:41.862Z,9.73
2022-10-11T03:51:46.127Z,9.75
2022-10-11T03:56:49.105Z,9.66
2022-10-11T04:01:52.071Z,9.63
2022-10-11T04:06:56.360Z,9.63
2022-10-11T04:11:59.603Z,9.71
2022-10-11T04:17:02.488Z,9.51
2022-10-11T04:22:07.065Z,9.36
2022-10-11T04:27:10.437Z,9.21
2022-10-11T04:32:13.380Z,9.36
2022-10-11T04:37:17.979Z,9.44
2022-10-11T04:42:21.243Z,9.46
2022-10-11T04:47:24.191Z,9.40
2022-10-11T04:52:28.486Z,9.33
2022-10-11T04:57:31.382Z,9.34
2022-10-11T05:02:34.356Z,8.85
2022-10-11T05:07:38.733Z,8.87
2022-10-11T05:12:41.708Z,9.04
2022-10-11T05:17:44.628Z,9.24
2022-10-11T05:22:49.034Z,9.02
2022-10-11T05:27:51.963Z,9.06
2022-10-11T05:32:54.908Z,9.11
2022-10-11T05:37:59.182Z,9.10
2022-10-11T05:43:02.135Z,9.17
2022-10-11T05:48:05.504Z,9.15
2022-10-11T05:54:17.569Z,9.10
2022-10-11T05:59:21.901Z,9.00
2022-10-11T06:04:24.811Z,9.04
2022-10-11T06:09:27.771Z,8.96
2022-10-11T06:14:32.373Z,9.22
2022-10-11T06:19:35.299Z,9.71
2022-10-11T06:24:38.223Z,9.89
2022-10-11T06:29:42.488Z,9.93
2022-10-11T06:34:45.414Z,9.47
2022-10-11T06:39:48.306Z,10.22
2022-10-11T06:44:52.598Z,10.89
2022-10-11T06:49:55.552Z,11.30
2022-10-11T06:54:58.482Z,11.04
2022-10-11T07:00:02.885Z,11.06
2022-10-11T07:05:06.525Z,11.81
2022-10-11T07:10:10.420Z,11.68
2022-10-11T07:15:14.692Z,11.26
2022-10-11T07:20:17.869Z,11.51
2022-10-11T07:25:20.823Z,12.14
2022-10-11T07:30:25.114Z,12.89
2022-10-11T07:35:28.131Z,13.16
2022-10-11T07:40:31.100Z,12.99
2022-10-11T07:45:35.430Z,13.33
2022-10-11T07:50:39.480Z,13.70
2022-10-11T07:55:42.876Z,13.24
2022-10-11T08:00:47.330Z,13.92
2022-10-11T08:05:52.212Z,13.34
2022-10-11T08:10:55.152Z,13.73
2022-10-11T09:00:20.351Z,11.80
2022-10-11T09:05:26.743Z,11.55
2022-10-11T09:10:52.363Z,11.75
2022-10-11T09:16:07.117Z,11.82
2022-10-11T09:21:26.032Z,12.04
2022-10-11T09:26:31.798Z,12.52
2022-10-11T09:31:36.212Z,13.57
2022-10-11T09:36:45.384Z,11.79
2022-10-11T09:41:54.768Z,12.26
2022-10-11T09:46:59.155Z,12.48
2022-10-11T09:52:04.102Z,12.21
2022-10-11T09:57:07.093Z,11.36
2022-10-11T10:02:22.639Z,10.97
2022-10-11T10:07:25.708Z,11.91
2022-10-11T10:12:31.569Z,13.84
2022-10-11T10:17:37.107Z,14.65
2022-10-11T10:22:40.076Z,15.22
2022-10-11T10:27:58.557Z,14.40
2022-10-11T10:33:05.835Z,13.50
2022-10-11T10:38:15.149Z,13.06
2022-10-11T10:43:22.335Z,11.83
2022-10-11T10:49:09.074Z,12.01
2022-10-11T10:54:09.902Z,13.49
2022-10-11T10:59:27.992Z,14.89
2022-10-11T11:04:34.439Z,15.34
2022-10-11T11:09:49.262Z,15.64
2022-10-11T11:15:02.947Z,14.69
2022-10-11T11:20:24.844Z,12.73
2022-10-11T11:25:39.287Z,12.65
2022-10-11T11:30:57.803Z,12.22
2022-10-11T11:36:05.065Z,12.67
2022-10-11T11:41:14.970Z,13.96
2022-10-11T11:46:22.717Z,13.77
2022-10-11T11:51:31.952Z,12.71
2022-10-11T11:56:46.791Z,12.37
2022-10-11T12:01:58.866Z,12.21
2022-10-11T12:07:16.311Z,12.94
2022-10-11T12:12:30.794Z,12.69
2022-10-11T12:17:34.033Z,13.30
2022-10-11T12:22:54.211Z,14.27
2022-10-11T12:27:58.976Z,14.86
2022-10-11T12:33:13.704Z,14.79
2022-10-11T12:38:21.310Z,12.93
2022-10-11T12:43:37.264Z,13.46
2022-10-11T12:48:53.612Z,13.33
2022-10-11T12:54:32.073Z,13.19
2022-10-11T12:59:42.588Z,12.81
2022-10-11T13:04:45.577Z,12.98
2022-10-11T13:09:55.338Z,12.98
2022-10-11T13:15:04.014Z,12.92
2022-10-11T13:20:10.881Z,12.52
2022-10-11T13:25:19.280Z,12.50
2022-10-11T13:30:26.867Z,13.01
2022-10-11T13:35:32.888Z,13.25
2022-10-11T13:40:39.009Z,12.99
2022-10-11T13:45:42.351Z,12.75
2022-10-11T13:50:52.291Z,13.49
2022-10-11T13:55:59.486Z,13.88
2022-10-11T14:01:04.982Z,13.89
2022-10-11T14:06:09.216Z,13.83
2022-10-11T14:11:15.152Z,13.20
2022-10-11T14:16:30.472Z,13.08
2022-10-11T14:21:35.997Z,13.59
2022-10-11T14:26:42.868Z,13.21
2022-10-11T14:31:45.886Z,13.15
2022-10-11T14:36:49.910Z,13.12
2022-10-11T14:41:54.967Z,13.57
2022-10-11T14:46:57.955Z,13.59
2022-10-11T14:52:01.448Z,13.15
2022-10-11T14:57:06.087Z,13.59
2022-10-11T15:02:12.468Z,13.60
2022-10-11T15:07:15.400Z,13.09
2022-10-11T15:12:19.705Z,13.16
2022-10-11T15:17:22.579Z,12.74
2022-10-11T15:22:25.574Z,12.47
2022-10-11T15:27:29.821Z,12.46
2022-10-11T15:32:32.791Z,11.78
2022-10-11T15:37:37.417Z,11.95
2022-10-11T15:42:42.423Z,11.98
2022-10-11T15:47:46.153Z,11.82
2022-10-11T15:52:49.104Z,11.70
2022-10-11T15:57:53.385Z,11.46
2022-10-11T16:02:56.705Z,11.22
2022-10-11T16:08:00.055Z,11.10
2022-10-11T16:13:04.812Z,10.99
2022-10-11T16:18:08.506Z,10.68
2022-10-11T16:23:12.276Z,10.62
2022-10-11T16:28:16.719Z,10.19
2022-10-11T16:33:19.730Z,10.11
2022-10-11T16:38:22.674Z,10.07
2022-10-11T16:43:27.267Z,10.00
2022-10-11T16:48:30.497Z,9.84
2022-10-11T16:53:34.556Z,9.64
2022-10-11T16:58:38.960Z,9.60
2022-10-11T17:03:41.898Z,9.50
2022-10-11T17:08:45.154Z,9.39
2022-10-11T17:13:51.587Z,9.24
2022-10-11T17:18:54.594Z,9.01
2022-10-11T17:23:57.624Z,8.83
2022-10-11T17:29:02.493Z,8.71
2022-10-11T17:34:05.490Z,8.69
2022-10-11T17:39:12.108Z,8.46
2022-10-11T17:44:18.489Z,8.39
2022-10-11T17:49:21.368Z,8.24
2022-10-11T17:54:24.658Z,8.17
2022-10-11T17:59:30.630Z,8.04
2022-10-11T18:04:33.637Z,8.02
2022-10-11T18:09:36.865Z,7.97
2022-10-11T18:14:41.167Z,7.86
2022-10-11T18:19:44.161Z,7.73
2022-10-11T18:24:47.097Z,7.65
2022-10-11T18:29:51.476Z,7.62
2022-10-11T18:34:55.855Z,7.40
2022-10-11T18:39:58.827Z,7.38
2022-10-11T18:45:03.253Z,7.27
2022-10-11T18:50:06.995Z,7.22
2022-10-11T18:55:10.040Z,7.20
2022-10-11T19:00:39.174Z,6.93
2022-10-11T19:05:39.542Z,7.03
2022-10-11T19:10:42.493Z,6.85
2022-10-11T19:15:46.842Z,6.76
2022-10-11T19:20:49.728Z,6.63
2022-10-11T19:25:57.766Z,6.62
2022-10-11T19:31:06.589Z,6.60
2022-10-11T19:36:13.023Z,6.53
2022-10-11T19:41:17.996Z,6.42
2022-10-11T19:46:44.509Z,6.31
2022-10-11T19:51:46.445Z,6.25
2022-10-11T19:56:49.690Z,6.14
2022-10-11T20:01:53.975Z,6.04
2022-10-11T20:06:56.931Z,6.00
2022-10-11T20:12:00.004Z,5.95
2022-10-11T20:17:04.351Z,5.82
2022-10-11T20:22:07.295Z,5.78
2022-10-11T20:27:10.181Z,5.66
2022-10-11T20:32:14.524Z,5.49
2022-10-11T20:37:17.397Z,5.49
2022-10-11T20:42:20.297Z,5.55
2022-10-11T20:47:24.688Z,5.44
2022-10-11T20:52:27.720Z,5.46
2022-10-11T20:57:31.752Z,5.45
2022-10-11T21:02:36.273Z,5.41
2022-10-11T21:07:39.252Z,5.21
2022-10-11T21:12:42.266Z,5.20
2022-10-11T21:17:46.605Z,5.21
2022-10-11T21:22:49.608Z,5.25
2022-10-11T21:27:52.492Z,5.11
2022-10-11T21:32:57.547Z,5.10
2022-10-11T21:38:01.702Z,4.95
2022-10-11T21:43:04.627Z,4.97
2022-10-11T21:48:08.878Z,4.90
2022-10-11T21:53:11.800Z,4.94
2022-10-11T21:58:14.756Z,4.81
2022-10-11T22:03:19.605Z,4.57
2022-10-11T22:08:23.656Z,4.65
2022-10-11T22:13:27.502Z,4.67
2022-10-11T22:18:33.659Z,4.55
2022-10-11T22:23:37.547Z,4.53
2022-10-11T22:28:40.848Z,4.60
2022-10-11T22:38:54.035Z,4.32
2022-10-11T22:43:56.975Z,4.24
2022-10-11T22:49:01.329Z,4.29
2022-10-11T22:54:04.301Z,4.16
2022-10-11T22:59:07.945Z,4.24
2022-10-11T23:04:12.202Z,4.17
2022-10-11T23:09:15.076Z,4.12
2022-10-11T23:14:18.079Z,4.06
2022-10-11T23:19:22.320Z,4.06
2022-10-11T23:24:25.308Z,4.00
2022-10-11T23:29:30.752Z,3.49
2022-10-11T23:34:35.293Z,3.75
2022-10-11T23:39:38.273Z,3.82
2022-10-11T23:44:41.265Z,3.78
2022-10-11T23:49:45.506Z,3.69
2022-10-11T23:54:48.420Z,3.46
2022-10-11T23:59:51.334Z,3.63
